createdAt,value
2023-01-03T00:02:12.137Z,1.27
2023-01-03T00:04:44.563Z,1.23
2023-01-03T00:07:34.357Z,0.90
2023-01-03T00:10:05.429Z,0.88
2023-01-03T00:12:33.190Z,0.95
2023-01-03T00:15:03.353Z,0.90
2023-01-03T00:17:31.563Z,1.13
2023-01-03T00:19:59.836Z,1.30
2023-01-03T00:22:31.947Z,1.40
2023-01-03T00:25:00.554Z,0.95
2023-01-03T00:27:29.929Z,1.00
2023-01-03T00:29:58.127Z,1.08
2023-01-03T00:32:28.276Z,1.30
2023-01-03T00:35:00.175Z,1.38
2023-01-03T00:37:33.074Z,1.00
2023-01-03T00:40:02.849Z,0.90
2023-01-03T00:42:51.142Z,0.97
2023-01-03T00:45:20.083Z,0.88
2023-01-03T00:47:50.232Z,0.93
2023-01-03T00:50:18.398Z,1.00
2023-01-03T00:52:46.471Z,1.08
2023-01-03T00:55:14.876Z,0.80
2023-01-03T00:57:43.059Z,0.90
2023-01-03T01:00:13.311Z,0.70
2023-01-03T01:02:41.711Z,0.70
2023-01-03T01:05:11.556Z,1.00
2023-01-03T01:07:39.812Z,0.80
2023-01-03T01:10:08.737Z,1.00
2023-01-03T01:12:37.136Z,0.80
2023-01-03T01:15:06.858Z,0.95
2023-01-03T01:17:35.056Z,0.90
2023-01-03T01:20:04.767Z,0.85
2023-01-03T01:22:35.737Z,1.23
2023-01-03T01:25:04.273Z,0.70
2023-01-03T01:27:33.076Z,0.90
2023-01-03T01:30:01.209Z,0.90
2023-01-03T01:32:29.583Z,0.80
2023-01-03T01:34:57.889Z,1.02
2023-01-03T01:37:26.431Z,1.27
2023-01-03T01:39:56.349Z,1.10
2023-01-03T01:42:41.852Z,1.17
2023-01-03T01:45:16.169Z,0.93
2023-01-03T01:47:53.778Z,1.10
2023-01-03T01:50:35.184Z,1.00
2023-01-03T01:53:10.674Z,1.00
2023-01-03T01:55:44.602Z,1.00
2023-01-03T01:58:13.871Z,1.13
2023-01-03T02:00:45.136Z,1.00
2023-01-03T02:03:14.813Z,1.10
2023-01-03T02:05:47.749Z,1.30
2023-01-03T02:08:18.518Z,1.60
2023-01-03T02:11:24.736Z,2.42
2023-01-03T02:14:04.623Z,2.53
2023-01-03T02:16:55.894Z,2.13
2023-01-03T02:19:54.762Z,2.38
2023-01-03T02:23:00.193Z,1.83
2023-01-03T02:26:22.264Z,1.48
2023-01-03T02:29:28.478Z,1.10
2023-01-03T02:32:08.828Z,1.15
2023-01-03T02:34:50.410Z,1.73
2023-01-03T02:37:34.244Z,1.70
2023-01-03T02:40:14.578Z,1.90
2023-01-03T02:43:02.450Z,1.85
2023-01-03T02:46:00.284Z,1.50
2023-01-03T02:48:41.546Z,2.65
2023-01-03T02:51:18.866Z,2.25
2023-01-03T02:53:52.078Z,1.90
2023-01-03T02:56:27.221Z,2.80
2023-01-03T02:59:02.625Z,1.98
2023-01-03T03:01:34.552Z,3.63
2023-01-03T03:04:07.997Z,3.95
2023-01-03T03:06:48.386Z,3.88
2023-01-03T03:09:17.161Z,2.80
2023-01-03T03:12:04.912Z,2.20
2023-01-03T03:14:40.882Z,2.33
2023-01-03T03:17:15.311Z,2.60
2023-01-03T03:20:06.493Z,1.90
2023-01-03T03:23:00.728Z,1.80
2023-01-03T03:25:34.764Z,1.60
2023-01-03T03:28:25.463Z,1.80
2023-01-03T03:30:57.869Z,1.48
2023-01-03T03:33:30.274Z,1.90
2023-01-03T03:36:09.501Z,3.70
2023-01-03T03:38:43.221Z,1.17
2023-01-03T03:41:39.708Z,1.23
2023-01-03T03:44:44.752Z,1.08
2023-01-03T03:47:30.286Z,1.30
2023-01-03T03:50:09.042Z,1.38
2023-01-03T03:52:43.418Z,1.15
2023-01-03T03:55:17.905Z,1.00
2023-01-03T03:57:54.537Z,3.50
2023-01-03T04:00:30.071Z,2.55
2023-01-03T04:03:02.763Z,2.27
2023-01-03T04:05:37.651Z,1.70
2023-01-03T04:13:07.488Z,1.10
2023-01-03T04:15:36.076Z,1.10
2023-01-03T04:18:04.628Z,2.33
2023-01-03T04:20:32.896Z,1.60
2023-01-03T04:23:01.526Z,3.13
2023-01-03T04:25:31.476Z,2.50
2023-01-03T04:27:59.842Z,1.50
2023-01-03T04:30:28.208Z,1.00
2023-01-03T04:32:57.800Z,1.02
2023-01-03T04:35:26.219Z,1.10
2023-01-03T04:37:54.389Z,0.93
2023-01-03T04:40:22.582Z,0.90
2023-01-03T04:43:09.870Z,1.30
2023-01-03T04:45:38.120Z,1.23
2023-01-03T04:48:08.479Z,0.98
2023-01-03T04:50:36.628Z,1.27
2023-01-03T04:53:04.994Z,1.20
2023-01-03T04:55:33.142Z,1.10
2023-01-03T04:58:02.846Z,1.10
2023-01-03T05:00:32.037Z,1.00
2023-01-03T05:03:00.165Z,1.30
2023-01-03T05:05:28.321Z,1.20
2023-01-03T05:07:56.489Z,1.33
2023-01-03T05:10:24.767Z,1.05
2023-01-03T05:13:01.073Z,1.20
2023-01-03T05:15:35.302Z,1.50
2023-01-03T05:18:03.582Z,1.63
2023-01-03T05:20:49.288Z,2.08
2023-01-03T05:23:36.842Z,1.70
2023-01-03T05:26:10.840Z,1.80
2023-01-03T05:28:43.174Z,5.30
2023-01-03T05:31:13.690Z,14.30
2023-01-03T05:33:42.691Z,5.78
2023-01-03T05:36:12.630Z,6.72
2023-01-03T05:38:41.013Z,7.30
2023-01-03T05:41:09.661Z,5.63
2023-01-03T05:43:38.260Z,5.13
2023-01-03T05:46:07.506Z,4.20
2023-01-03T05:48:37.576Z,5.13
2023-01-03T05:51:06.063Z,4.95
2023-01-03T05:53:34.353Z,5.70
2023-01-03T05:56:06.800Z,5.05
2023-01-03T05:58:35.055Z,6.00
2023-01-03T06:01:10.749Z,7.05
2023-01-03T06:03:40.297Z,4.85
2023-01-03T06:06:10.207Z,3.58
2023-01-03T06:08:38.413Z,3.38
2023-01-03T06:11:07.940Z,3.20
2023-01-03T06:13:36.336Z,2.20
2023-01-03T06:16:24.929Z,2.00
2023-01-03T06:18:55.351Z,2.40
2023-01-03T06:21:24.341Z,2.00
2023-01-03T06:23:52.336Z,2.53
2023-01-03T06:26:25.249Z,2.40
2023-01-03T06:28:54.970Z,2.30
2023-01-03T06:31:23.496Z,2.83
2023-01-03T06:33:52.164Z,3.40
2023-01-03T06:36:26.043Z,4.30
2023-01-03T06:38:56.455Z,4.57
2023-01-03T06:41:25.194Z,3.83
2023-01-03T06:43:55.006Z,3.83
2023-01-03T06:46:41.515Z,2.92
2023-01-03T06:49:35.359Z,3.10
2023-01-03T06:52:30.429Z,2.95
2023-01-03T06:54:59.831Z,2.80
2023-01-03T06:57:28.560Z,3.08
2023-01-03T06:59:57.239Z,4.20
2023-01-03T07:02:25.913Z,5.80
2023-01-03T07:04:54.271Z,6.13
2023-01-03T07:07:23.933Z,5.80
2023-01-03T07:09:52.759Z,5.00
2023-01-03T07:12:38.684Z,4.72
2023-01-03T07:15:08.961Z,4.30
2023-01-03T07:17:37.164Z,4.53
2023-01-03T07:20:06.940Z,3.83
2023-01-03T07:22:36.502Z,3.60
2023-01-03T07:25:07.407Z,3.10
2023-01-03T07:27:36.000Z,3.00
2023-01-03T07:30:04.507Z,3.00
2023-01-03T07:32:33.200Z,3.47
2023-01-03T07:35:02.266Z,2.35
2023-01-03T07:37:30.827Z,1.98
2023-01-03T07:40:00.580Z,2.38
2023-01-03T07:42:46.174Z,6.10
2023-01-03T07:45:14.362Z,4.70
2023-01-03T07:47:45.833Z,3.83
2023-01-03T07:50:15.073Z,3.10
2023-01-03T07:52:43.596Z,2.30
2023-01-03T07:55:13.146Z,2.30
2023-01-03T07:57:41.364Z,2.28
2023-01-03T08:00:11.539Z,1.80
2023-01-03T08:02:42.964Z,1.92
2023-01-03T08:05:11.842Z,1.80
2023-01-03T08:07:40.093Z,1.40
2023-01-03T08:10:26.836Z,1.70
2023-01-03T08:13:14.169Z,1.60
2023-01-03T08:15:45.193Z,2.13
2023-01-03T08:18:14.400Z,2.67
2023-01-03T08:20:43.558Z,2.20
2023-01-03T08:23:12.081Z,1.90
2023-01-03T08:25:41.250Z,1.50
2023-01-03T08:28:12.601Z,1.67
2023-01-03T08:30:45.564Z,1.67
2023-01-03T08:33:17.149Z,1.90
2023-01-03T08:35:51.439Z,2.40
2023-01-03T08:38:27.196Z,2.00
2023-01-03T08:40:56.908Z,1.83
2023-01-03T08:43:27.756Z,2.50
2023-01-03T08:45:55.921Z,2.10
2023-01-03T08:48:25.489Z,2.60
2023-01-03T08:50:53.929Z,2.55
2023-01-03T08:53:24.329Z,3.10
2023-01-03T08:55:53.016Z,3.50
2023-01-03T08:58:21.323Z,3.17
2023-01-03T09:00:51.419Z,2.90
2023-01-03T09:03:20.158Z,2.78
2023-01-03T09:05:48.703Z,2.83
2023-01-03T09:08:18.528Z,2.70
2023-01-03T09:10:48.720Z,2.80
2023-01-03T09:13:16.900Z,2.30
2023-01-03T09:15:45.466Z,2.40
2023-01-03T09:18:15.453Z,2.70
2023-01-03T09:20:43.958Z,2.20
2023-01-03T09:23:12.247Z,2.30
2023-01-03T09:25:40.435Z,2.40
2023-01-03T09:28:08.706Z,2.60
2023-01-03T09:30:36.971Z,1.95
2023-01-03T09:33:06.374Z,2.17
2023-01-03T09:35:35.920Z,2.97
2023-01-03T09:38:04.438Z,3.38
2023-01-03T09:40:38.934Z,3.80
2023-01-03T09:43:21.489Z,3.90
2023-01-03T09:45:58.389Z,5.17
2023-01-03T09:48:34.106Z,5.33
2023-01-03T09:51:29.825Z,7.95
2023-01-03T09:54:17.303Z,7.43
2023-01-03T09:57:03.414Z,6.93
2023-01-03T09:59:55.911Z,5.43
2023-01-03T10:03:12.390Z,6.22
2023-01-03T10:06:06.065Z,5.68
2023-01-03T10:08:55.143Z,4.50
2023-01-03T10:11:35.099Z,3.40
2023-01-03T10:14:25.687Z,3.55
2023-01-03T10:17:06.333Z,3.10
2023-01-03T10:20:26.358Z,3.30
2023-01-03T10:23:01.977Z,2.60
2023-01-03T10:25:30.901Z,2.50
2023-01-03T10:28:12.619Z,2.50
2023-01-03T10:31:08.712Z,2.17
2023-01-03T10:33:42.193Z,1.55
2023-01-03T10:36:11.445Z,1.77
2023-01-03T10:38:47.836Z,1.00
2023-01-03T10:41:31.793Z,0.67
2023-01-03T10:44:02.678Z,0.57
2023-01-03T10:46:31.847Z,0.53
2023-01-03T10:49:29.287Z,0.67
2023-01-03T10:52:03.852Z,0.40
2023-01-03T10:54:50.508Z,0.43
2023-01-03T10:57:39.561Z,0.80
2023-01-03T11:00:33.152Z,0.87
2023-01-03T11:03:16.227Z,1.60
2023-01-03T11:05:51.365Z,0.60
2023-01-03T11:08:35.867Z,0.70
2023-01-03T11:11:06.252Z,0.40
2023-01-03T11:13:39.851Z,0.50
2023-01-03T11:16:17.235Z,0.60
2023-01-03T11:19:01.094Z,0.60
2023-01-03T11:21:40.100Z,0.80
2023-01-03T11:24:31.167Z,0.50
2023-01-03T11:27:16.928Z,0.40
2023-01-03T11:30:18.586Z,0.80
2023-01-03T13:57:28.497Z,2.13
2023-01-03T14:00:02.933Z,1.60
2023-01-03T14:03:45.134Z,1.40
2023-01-03T14:07:02.837Z,1.60
2023-01-03T14:10:04.772Z,4.07
2023-01-03T14:13:27.956Z,2.47
2023-01-03T14:16:22.583Z,1.80
2023-01-03T14:19:07.953Z,1.33
2023-01-03T14:21:46.371Z,1.07
2023-01-03T14:24:23.628Z,1.53
2023-01-03T14:26:52.422Z,2.00
2023-01-03T14:29:27.643Z,2.70
2023-01-03T14:32:00.323Z,1.97
2023-01-03T14:34:36.677Z,2.43
2023-01-03T14:37:11.395Z,2.13
2023-01-03T14:42:16.314Z,1.80
2023-01-03T14:44:51.881Z,1.47
2023-01-03T14:47:20.776Z,1.40
2023-01-03T14:49:52.692Z,0.80
2023-01-03T14:52:32.455Z,1.20
2023-01-03T14:55:06.780Z,1.53
2023-01-03T14:57:40.539Z,1.40
2023-01-03T15:00:22.314Z,0.70
2023-01-03T15:02:55.370Z,1.20
2023-01-03T15:05:29.693Z,1.20
2023-01-03T15:08:09.644Z,2.10
2023-01-03T15:10:46.670Z,2.00
2023-01-03T15:13:23.302Z,2.17
2023-01-03T15:15:59.370Z,5.37
2023-01-03T15:18:33.058Z,6.40
2023-01-03T15:21:04.231Z,7.17
2023-01-03T15:23:41.256Z,5.60
2023-01-03T15:26:23.197Z,6.10
2023-01-03T15:28:55.387Z,9.77
2023-01-03T15:31:38.095Z,6.50
2023-01-03T15:34:16.234Z,6.67
2023-01-03T15:36:50.342Z,6.53
2023-01-03T15:39:22.529Z,4.77
2023-01-03T15:45:09.953Z,4.83
2023-01-03T15:47:43.048Z,10.93
2023-01-03T15:50:18.653Z,13.00
2023-01-03T15:52:48.084Z,19.10
2023-01-03T15:55:18.547Z,12.53
2023-01-03T15:57:52.647Z,11.77
2023-01-03T16:00:26.042Z,19.30
2023-01-03T16:02:56.103Z,14.37
2023-01-03T16:05:24.535Z,11.40
2023-01-03T16:07:53.050Z,7.93
2023-01-03T16:10:22.336Z,5.93
2023-01-03T16:12:50.815Z,4.23
2023-01-03T16:15:23.027Z,4.43
2023-01-03T16:17:52.933Z,5.30
2023-01-03T16:20:24.383Z,5.70
2023-01-03T16:23:01.052Z,8.90
2023-01-03T16:25:31.159Z,6.87
2023-01-03T16:27:59.791Z,5.53
2023-01-03T16:30:27.997Z,8.33
2023-01-03T16:32:56.561Z,6.77
2023-01-03T16:35:26.245Z,6.20
2023-01-03T16:37:54.454Z,6.30
2023-01-03T16:40:23.156Z,7.73
2023-01-03T16:42:51.669Z,9.30
2023-01-03T16:45:20.043Z,11.40
2023-01-03T16:47:50.189Z,12.23
2023-01-03T16:50:21.371Z,14.37
2023-01-03T16:52:55.499Z,10.43
2023-01-03T16:55:28.257Z,8.53
2023-01-03T16:57:57.058Z,7.40
2023-01-03T17:00:29.270Z,9.80
2023-01-03T17:03:00.148Z,10.17
2023-01-03T17:05:33.819Z,13.17
2023-01-03T17:08:09.640Z,11.37
2023-01-03T17:10:41.782Z,7.60
2023-01-03T17:13:27.895Z,7.50
2023-01-03T17:15:57.098Z,5.73
2023-01-03T17:18:28.567Z,4.93
2023-01-03T17:21:01.204Z,5.07
2023-01-03T17:23:37.214Z,8.63
2023-01-03T17:26:05.747Z,8.97
2023-01-03T17:28:35.451Z,10.67
2023-01-03T17:31:03.985Z,14.13
2023-01-03T17:33:34.350Z,14.27
2023-01-03T17:36:03.069Z,11.33
2023-01-03T17:38:35.122Z,12.27
2023-01-03T17:41:03.460Z,14.47
2023-01-03T17:43:32.743Z,9.50
2023-01-03T17:46:23.780Z,10.83
2023-01-03T17:49:09.726Z,7.60
2023-01-03T17:51:38.106Z,13.67
2023-01-03T17:54:07.917Z,12.80
2023-01-03T17:56:37.809Z,13.87
2023-01-03T17:59:06.664Z,16.67
2023-01-03T18:01:35.285Z,13.63
2023-01-03T18:04:04.415Z,9.57
2023-01-03T18:06:32.956Z,8.30
2023-01-03T18:09:06.148Z,10.77
2023-01-03T18:11:36.048Z,8.23
2023-01-03T18:14:04.712Z,8.90
2023-01-03T18:16:32.976Z,11.73
2023-01-03T18:19:01.821Z,11.77
2023-01-03T18:21:30.091Z,12.27
2023-01-03T18:24:03.845Z,8.27
2023-01-03T18:26:38.986Z,6.17
2023-01-03T18:29:09.523Z,7.43
2023-01-03T18:31:38.147Z,6.90
2023-01-03T18:34:06.600Z,8.10
2023-01-03T18:36:43.791Z,7.77
2023-01-03T18:39:16.628Z,7.13
2023-01-03T18:41:46.334Z,6.77
2023-01-03T18:44:23.464Z,7.27
2023-01-03T18:46:53.767Z,7.27
2023-01-03T18:49:22.346Z,6.60
2023-01-03T18:51:54.383Z,10.13
2023-01-03T18:54:22.748Z,6.93
2023-01-03T18:56:52.597Z,6.00
2023-01-03T18:59:25.026Z,8.93
2023-01-03T19:01:55.163Z,15.90
2023-01-03T19:04:23.878Z,12.43
2023-01-03T19:06:52.713Z,5.43
2023-01-03T19:09:25.525Z,6.27
2023-01-03T19:11:56.011Z,5.37
2023-01-03T19:14:24.200Z,6.87
2023-01-03T19:16:52.968Z,3.30
2023-01-03T19:19:21.166Z,5.67
2023-01-03T19:21:49.603Z,4.87
2023-01-03T19:24:25.645Z,16.73
2023-01-03T19:26:59.841Z,17.97
2023-01-03T19:29:37.277Z,22.67
2023-01-03T19:32:16.241Z,16.67
2023-01-03T19:34:45.251Z,12.87
2023-01-03T19:37:13.611Z,12.27
2023-01-03T19:39:41.907Z,16.50
2023-01-03T19:42:34.396Z,13.10
2023-01-03T19:45:09.403Z,10.23
2023-01-03T19:47:39.007Z,9.53
2023-01-03T19:50:19.466Z,12.10
2023-01-03T19:52:49.186Z,11.33
2023-01-03T19:55:19.490Z,10.67
2023-01-03T19:57:51.740Z,10.87
2023-01-03T20:00:23.589Z,13.20
2023-01-03T20:03:26.894Z,9.03
2023-01-03T20:05:55.943Z,13.17
2023-01-03T20:08:24.479Z,10.40
2023-01-03T20:10:55.596Z,7.80
2023-01-03T20:13:28.687Z,10.00
2023-01-03T20:16:01.861Z,6.40
2023-01-03T20:18:34.159Z,7.27
2023-01-03T20:21:18.096Z,4.37
2023-01-03T20:23:53.857Z,4.73
2023-01-03T20:26:27.476Z,3.93
2023-01-03T20:33:46.897Z,3.70
2023-01-03T20:36:23.091Z,3.50
2023-01-03T20:38:56.250Z,3.17
2023-01-03T20:51:01.287Z,4.00
2023-01-03T20:53:29.526Z,4.03
2023-01-03T20:55:57.689Z,3.00
2023-01-03T20:58:26.605Z,3.37
2023-01-03T21:01:03.770Z,5.47
2023-01-03T21:03:34.876Z,5.57
2023-01-03T21:06:14.513Z,4.90
2023-01-03T21:08:58.326Z,3.57
2023-01-03T21:11:30.225Z,3.83
2023-01-03T21:14:01.496Z,3.97
2023-01-03T21:16:34.160Z,4.10
2023-01-03T21:19:08.526Z,4.77
2023-01-03T21:21:38.464Z,4.43
2023-01-03T21:24:08.217Z,3.73
2023-01-03T21:26:36.441Z,5.00
2023-01-03T21:29:05.124Z,5.67
2023-01-03T21:31:35.900Z,5.63
2023-01-03T21:34:07.206Z,7.13
2023-01-03T21:36:38.427Z,8.30
2023-01-03T21:39:07.118Z,7.10
2023-01-03T21:41:58.801Z,6.27
2023-01-03T21:44:27.155Z,9.70
2023-01-03T21:46:55.360Z,9.27
2023-01-03T21:49:24.150Z,8.67
2023-01-03T21:51:53.720Z,16.50
2023-01-03T21:54:22.008Z,15.20
2023-01-03T21:56:50.211Z,23.60
2023-01-03T21:59:19.185Z,20.60
2023-01-03T22:02:06.701Z,20.40
2023-01-03T22:04:36.014Z,17.83
2023-01-03T22:07:05.533Z,20.33
2023-01-03T22:09:51.537Z,19.63
2023-01-03T22:12:21.687Z,22.93
2023-01-03T22:14:50.122Z,16.43
2023-01-03T22:17:18.252Z,10.20
2023-01-03T22:19:46.432Z,6.80
2023-01-03T22:22:17.063Z,14.43
2023-01-03T22:24:45.326Z,12.30
2023-01-03T22:27:14.254Z,19.97
2023-01-03T22:29:42.420Z,15.83
2023-01-03T22:32:10.802Z,16.07
2023-01-03T22:34:40.192Z,13.30
2023-01-03T22:37:08.576Z,5.60
2023-01-03T22:39:39.235Z,6.60
2023-01-03T22:42:07.370Z,15.87
2023-01-03T22:44:35.824Z,12.97
2023-01-03T22:47:04.961Z,11.50
2023-01-03T22:49:34.229Z,9.57
2023-01-03T22:52:02.593Z,8.50
2023-01-03T22:54:30.838Z,8.73
2023-01-03T22:57:01.620Z,7.63
2023-01-03T22:59:31.527Z,7.33
2023-01-03T23:02:00.381Z,8.87
2023-01-03T23:04:28.876Z,7.70
2023-01-03T23:06:57.203Z,7.80
2023-01-03T23:09:25.944Z,7.90
2023-01-03T23:12:12.334Z,6.70
2023-01-03T23:14:42.323Z,6.47
2023-01-03T23:17:29.021Z,4.87
2023-01-03T23:19:57.216Z,5.73
2023-01-03T23:22:27.099Z,4.70
2023-01-03T23:24:57.967Z,5.13
2023-01-03T23:27:28.855Z,5.10
2023-01-03T23:29:58.404Z,4.73
2023-01-03T23:32:27.454Z,4.47
2023-01-03T23:34:55.878Z,6.17
2023-01-03T23:37:24.021Z,5.80
2023-01-03T23:44:05.177Z,7.70
2023-01-03T23:46:34.964Z,6.17
2023-01-03T23:49:03.614Z,4.87
2023-01-03T23:51:31.970Z,6.07
2023-01-03T23:54:01.133Z,4.87
2023-01-03T23:56:29.416Z,4.60
2023-01-03T23:58:57.630Z,4.40
